sensor_id;sensor_type;location;lat;lon;timestamp;pressure;altitude;pressure_sealevel;temperature
12918;BMP180;6526;54.312;13.092;2022-08-21T00:02:27;101863.00;;;21.90
12918;BMP180;6526;54.312;13.092;2022-08-21T00:04:53;101870.00;;;21.90
12918;BMP180;6526;54.312;13.092;2022-08-21T00:07:20;101858.00;;;22.00
12918;BMP180;6526;54.312;13.092;2022-08-21T00:09:47;101855.00;;;22.00
12918;BMP180;6526;54.312;13.092;2022-08-21T00:12:13;101858.00;;;22.00
12918;BMP180;6526;54.312;13.092;2022-08-21T00:14:40;101863.00;;;21.90
12918;BMP180;6526;54.312;13.092;2022-08-21T00:17:06;101858.00;;;21.90
12918;BMP180;6526;54.312;13.092;2022-08-21T00:19:33;101853.00;;;21.90
12918;BMP180;6526;54.312;13.092;2022-08-21T00:21:59;101830.00;;;21.90
12918;BMP180;6526;54.312;13.092;2022-08-21T00:24:25;101849.00;;;21.90
12918;BMP180;6526;54.312;13.092;2022-08-21T00:26:51;101847.00;;;21.90
12918;BMP180;6526;54.312;13.092;2022-08-21T00:29:18;101842.00;;;21.90
12918;BMP180;6526;54.312;13.092;2022-08-21T00:31:45;101848.00;;;21.90
12918;BMP180;6526;54.312;13.092;2022-08-21T00:34:12;101847.00;;;21.90
12918;BMP180;6526;54.312;13.092;2022-08-21T00:36:39;101839.00;;;21.90
12918;BMP180;6526;54.312;13.092;2022-08-21T00:39:07;101854.00;;;21.90
12918;BMP180;6526;54.312;13.092;2022-08-21T00:41:34;101857.00;;;21.90
12918;BMP180;6526;54.312;13.092;2022-08-21T00:44:01;101844.00;;;21.90
12918;BMP180;6526;54.312;13.092;2022-08-21T00:46:27;101847.00;;;21.90
12918;BMP180;6526;54.312;13.092;2022-08-21T00:48:53;101847.00;;;21.90
12918;BMP180;6526;54.312;13.092;2022-08-21T00:51:24;101847.00;;;21.90
12918;BMP180;6526;54.312;13.092;2022-08-21T00:53:57;101848.00;;;22.00
12918;BMP180;6526;54.312;13.092;2022-08-21T00:56:26;101838.00;;;21.80
12918;BMP180;6526;54.312;13.092;2022-08-21T00:58:53;101843.00;;;21.80
12918;BMP180;6526;54.312;13.092;2022-08-21T01:01:20;101845.00;;;21.80
12918;BMP180;6526;54.312;13.092;2022-08-21T01:03:47;101840.00;;;21.80
12918;BMP180;6526;54.312;13.092;2022-08-21T01:06:13;101836.00;;;21.80
12918;BMP180;6526;54.312;13.092;2022-08-21T01:08:40;101838.00;;;21.80
12918;BMP180;6526;54.312;13.092;2022-08-21T01:11:06;101840.00;;;21.80
12918;BMP180;6526;54.312;13.092;2022-08-21T01:13:35;101820.00;;;21.80
12918;BMP180;6526;54.312;13.092;2022-08-21T01:16:04;101842.00;;;21.80
12918;BMP180;6526;54.312;13.092;2022-08-21T01:18:33;101836.00;;;21.70
12918;BMP180;6526;54.312;13.092;2022-08-21T01:21:18;101829.00;;;21.70
12918;BMP180;6526;54.312;13.092;2022-08-21T01:23:49;101840.00;;;21.70
12918;BMP180;6526;54.312;13.092;2022-08-21T01:26:17;101833.00;;;21.70
12918;BMP180;6526;54.312;13.092;2022-08-21T01:29:00;101839.00;;;21.70
12918;BMP180;6526;54.312;13.092;2022-08-21T01:31:28;101838.00;;;21.70
12918;BMP180;6526;54.312;13.092;2022-08-21T01:33:55;101830.00;;;21.70
12918;BMP180;6526;54.312;13.092;2022-08-21T01:36:22;101838.00;;;21.70
12918;BMP180;6526;54.312;13.092;2022-08-21T01:38:49;101838.00;;;21.60
12918;BMP180;6526;54.312;13.092;2022-08-21T01:41:16;101842.00;;;21.60
12918;BMP180;6526;54.312;13.092;2022-08-21T01:43:42;101833.00;;;21.50
12918;BMP180;6526;54.312;13.092;2022-08-21T01:46:09;101843.00;;;21.50
12918;BMP180;6526;54.312;13.092;2022-08-21T01:48:35;101847.00;;;21.50
12918;BMP180;6526;54.312;13.092;2022-08-21T01:51:03;101851.00;;;21.50
12918;BMP180;6526;54.312;13.092;2022-08-21T01:53:30;101845.00;;;21.50
12918;BMP180;6526;54.312;13.092;2022-08-21T01:55:56;101842.00;;;21.50
12918;BMP180;6526;54.312;13.092;2022-08-21T01:58:22;101837.00;;;21.40
12918;BMP180;6526;54.312;13.092;2022-08-21T02:00:48;101839.00;;;21.50
12918;BMP180;6526;54.312;13.092;2022-08-21T02:03:15;101838.00;;;21.50
12918;BMP180;6526;54.312;13.092;2022-08-21T02:05:41;101826.00;;;21.50
12918;BMP180;6526;54.312;13.092;2022-08-21T02:08:07;101832.00;;;21.60
12918;BMP180;6526;54.312;13.092;2022-08-21T02:10:34;101836.00;;;21.60
12918;BMP180;6526;54.312;13.092;2022-08-21T02:13:00;101814.00;;;21.50
12918;BMP180;6526;54.312;13.092;2022-08-21T02:15:28;101834.00;;;21.50
12918;BMP180;6526;54.312;13.092;2022-08-21T02:17:57;101834.00;;;21.50
12918;BMP180;6526;54.312;13.092;2022-08-21T02:22:53;101840.00;;;21.60
12918;BMP180;6526;54.312;13.092;2022-08-21T02:25:21;101844.00;;;21.60
12918;BMP180;6526;54.312;13.092;2022-08-21T02:27:48;101841.00;;;21.60
12918;BMP180;6526;54.312;13.092;2022-08-21T02:30:25;101842.00;;;21.60
12918;BMP180;6526;54.312;13.092;2022-08-21T02:32:51;101829.00;;;21.60
12918;BMP180;6526;54.312;13.092;2022-08-21T02:35:18;101840.00;;;21.50
12918;BMP180;6526;54.312;13.092;2022-08-21T02:37:53;101843.00;;;21.60
12918;BMP180;6526;54.312;13.092;2022-08-21T02:40:22;101842.00;;;21.50
12918;BMP180;6526;54.312;13.092;2022-08-21T02:42:49;101836.00;;;21.50
12918;BMP180;6526;54.312;13.092;2022-08-21T02:45:17;101836.00;;;21.50
12918;BMP180;6526;54.312;13.092;2022-08-21T02:47:55;101846.00;;;21.50
12918;BMP180;6526;54.312;13.092;2022-08-21T02:50:36;101839.00;;;21.40
12918;BMP180;6526;54.312;13.092;2022-08-21T02:53:04;101835.00;;;21.50
12918;BMP180;6526;54.312;13.092;2022-08-21T02:55:33;101849.00;;;21.60
12918;BMP180;6526;54.312;13.092;2022-08-21T02:58:00;101838.00;;;21.60
12918;BMP180;6526;54.312;13.092;2022-08-21T03:00:28;101837.00;;;21.60
12918;BMP180;6526;54.312;13.092;2022-08-21T03:02:55;101832.00;;;21.60
12918;BMP180;6526;54.312;13.092;2022-08-21T03:05:23;101844.00;;;21.70
12918;BMP180;6526;54.312;13.092;2022-08-21T03:07:50;101837.00;;;21.70
12918;BMP180;6526;54.312;13.092;2022-08-21T03:10:19;101847.00;;;21.80
12918;BMP180;6526;54.312;13.092;2022-08-21T03:12:46;101847.00;;;21.70
12918;BMP180;6526;54.312;13.092;2022-08-21T03:15:14;101850.00;;;21.70
12918;BMP180;6526;54.312;13.092;2022-08-21T03:17:41;101856.00;;;21.60
12918;BMP180;6526;54.312;13.092;2022-08-21T03:20:08;101842.00;;;21.50
12918;BMP180;6526;54.312;13.092;2022-08-21T03:22:34;101853.00;;;21.40
12918;BMP180;6526;54.312;13.092;2022-08-21T03:25:01;101851.00;;;21.40
12918;BMP180;6526;54.312;13.092;2022-08-21T03:27:28;101846.00;;;21.40
12918;BMP180;6526;54.312;13.092;2022-08-21T03:29:55;101845.00;;;21.40
12918;BMP180;6526;54.312;13.092;2022-08-21T03:32:21;101849.00;;;21.40
12918;BMP180;6526;54.312;13.092;2022-08-21T03:34:47;101852.00;;;21.30
12918;BMP180;6526;54.312;13.092;2022-08-21T03:37:14;101848.00;;;21.40
12918;BMP180;6526;54.312;13.092;2022-08-21T03:39:41;101858.00;;;21.30
12918;BMP180;6526;54.312;13.092;2022-08-21T03:42:11;101871.00;;;21.30
12918;BMP180;6526;54.312;13.092;2022-08-21T03:44:37;101865.00;;;21.30
12918;BMP180;6526;54.312;13.092;2022-08-21T03:47:05;101870.00;;;21.20
12918;BMP180;6526;54.312;13.092;2022-08-21T03:49:31;101861.00;;;21.20
12918;BMP180;6526;54.312;13.092;2022-08-21T03:51:57;101863.00;;;21.20
12918;BMP180;6526;54.312;13.092;2022-08-21T03:54:24;101856.00;;;21.30
12918;BMP180;6526;54.312;13.092;2022-08-21T03:56:50;101863.00;;;21.30
12918;BMP180;6526;54.312;13.092;2022-08-21T03:59:16;101860.00;;;21.40
12918;BMP180;6526;54.312;13.092;2022-08-21T04:02:01;101860.00;;;21.40
12918;BMP180;6526;54.312;13.092;2022-08-21T04:04:29;101870.00;;;21.40
12918;BMP180;6526;54.312;13.092;2022-08-21T04:06:55;101873.00;;;21.50
12918;BMP180;6526;54.312;13.092;2022-08-21T04:09:22;101870.00;;;21.40
12918;BMP180;6526;54.312;13.092;2022-08-21T04:11:49;101872.00;;;21.40
12918;BMP180;6526;54.312;13.092;2022-08-21T04:14:16;101869.00;;;21.40
12918;BMP180;6526;54.312;13.092;2022-08-21T04:16:43;101864.00;;;21.40
12918;BMP180;6526;54.312;13.092;2022-08-21T04:19:10;101865.00;;;21.40
12918;BMP180;6526;54.312;13.092;2022-08-21T04:21:36;101871.00;;;21.40
12918;BMP180;6526;54.312;13.092;2022-08-21T04:24:04;101870.00;;;21.40
12918;BMP180;6526;54.312;13.092;2022-08-21T04:26:30;101865.00;;;21.40
12918;BMP180;6526;54.312;13.092;2022-08-21T04:28:57;101870.00;;;21.40
12918;BMP180;6526;54.312;13.092;2022-08-21T04:31:24;101874.00;;;21.50
12918;BMP180;6526;54.312;13.092;2022-08-21T04:33:50;101870.00;;;21.50
12918;BMP180;6526;54.312;13.092;2022-08-21T04:36:16;101872.00;;;21.60
12918;BMP180;6526;54.312;13.092;2022-08-21T04:38:43;101860.00;;;21.60
12918;BMP180;6526;54.312;13.092;2022-08-21T04:41:09;101869.00;;;21.60
12918;BMP180;6526;54.312;13.092;2022-08-21T04:43:35;101862.00;;;21.60
12918;BMP180;6526;54.312;13.092;2022-08-21T04:46:01;101860.00;;;21.50
12918;BMP180;6526;54.312;13.092;2022-08-21T04:48:28;101875.00;;;21.50
12918;BMP180;6526;54.312;13.092;2022-08-21T04:51:11;101882.00;;;21.60
12918;BMP180;6526;54.312;13.092;2022-08-21T04:53:49;101878.00;;;21.70
12918;BMP180;6526;54.312;13.092;2022-08-21T04:58:54;101881.00;;;21.50
12918;BMP180;6526;54.312;13.092;2022-08-21T05:01:23;101874.00;;;21.50
12918;BMP180;6526;54.312;13.092;2022-08-21T05:03:52;101890.00;;;21.60
12918;BMP180;6526;54.312;13.092;2022-08-21T05:06:20;101882.00;;;21.70
12918;BMP180;6526;54.312;13.092;2022-08-21T05:08:49;101885.00;;;21.60
12918;BMP180;6526;54.312;13.092;2022-08-21T05:11:18;101877.00;;;21.60
12918;BMP180;6526;54.312;13.092;2022-08-21T05:13:44;101885.00;;;21.70
12918;BMP180;6526;54.312;13.092;2022-08-21T05:16:11;101886.00;;;21.70
12918;BMP180;6526;54.312;13.092;2022-08-21T05:18:37;101878.00;;;21.70
12918;BMP180;6526;54.312;13.092;2022-08-21T05:21:03;101876.00;;;21.70
12918;BMP180;6526;54.312;13.092;2022-08-21T05:23:30;101889.00;;;21.80
12918;BMP180;6526;54.312;13.092;2022-08-21T05:25:56;101889.00;;;21.80
12918;BMP180;6526;54.312;13.092;2022-08-21T05:28:23;101886.00;;;21.70
12918;BMP180;6526;54.312;13.092;2022-08-21T05:30:49;101882.00;;;21.80
12918;BMP180;6526;54.312;13.092;2022-08-21T05:33:15;101882.00;;;21.70
12918;BMP180;6526;54.312;13.092;2022-08-21T05:35:41;101894.00;;;21.80
12918;BMP180;6526;54.312;13.092;2022-08-21T05:38:07;101890.00;;;21.70
12918;BMP180;6526;54.312;13.092;2022-08-21T05:40:34;101897.00;;;21.80
12918;BMP180;6526;54.312;13.092;2022-08-21T05:43:00;101888.00;;;21.90
12918;BMP180;6526;54.312;13.092;2022-08-21T05:45:29;101898.00;;;21.90
12918;BMP180;6526;54.312;13.092;2022-08-21T05:47:55;101888.00;;;21.80
12918;BMP180;6526;54.312;13.092;2022-08-21T05:50:21;101893.00;;;21.90
12918;BMP180;6526;54.312;13.092;2022-08-21T05:52:47;101897.00;;;22.00
12918;BMP180;6526;54.312;13.092;2022-08-21T05:55:13;101885.00;;;22.00
12918;BMP180;6526;54.312;13.092;2022-08-21T05:57:39;101896.00;;;22.10
12918;BMP180;6526;54.312;13.092;2022-08-21T06:00:08;101893.00;;;22.10
12918;BMP180;6526;54.312;13.092;2022-08-21T06:02:36;101900.00;;;22.20
12918;BMP180;6526;54.312;13.092;2022-08-21T06:05:02;101903.00;;;22.20
12918;BMP180;6526;54.312;13.092;2022-08-21T06:07:28;101905.00;;;22.30
12918;BMP180;6526;54.312;13.092;2022-08-21T06:09:54;101903.00;;;22.30
12918;BMP180;6526;54.312;13.092;2022-08-21T06:12:20;101899.00;;;22.40
12918;BMP180;6526;54.312;13.092;2022-08-21T06:14:46;101902.00;;;22.40
12918;BMP180;6526;54.312;13.092;2022-08-21T06:17:13;101901.00;;;22.50
12918;BMP180;6526;54.312;13.092;2022-08-21T06:19:40;101900.00;;;22.50
12918;BMP180;6526;54.312;13.092;2022-08-21T06:22:06;101905.00;;;22.60
12918;BMP180;6526;54.312;13.092;2022-08-21T06:24:33;101909.00;;;22.70
12918;BMP180;6526;54.312;13.092;2022-08-21T06:27:05;101910.00;;;22.80
12918;BMP180;6526;54.312;13.092;2022-08-21T06:29:31;101899.00;;;22.90
12918;BMP180;6526;54.312;13.092;2022-08-21T06:31:57;101899.00;;;22.90
12918;BMP180;6526;54.312;13.092;2022-08-21T06:34:23;101907.00;;;22.90
12918;BMP180;6526;54.312;13.092;2022-08-21T06:36:49;101905.00;;;22.90
12918;BMP180;6526;54.312;13.092;2022-08-21T06:39:15;101901.00;;;23.10
12918;BMP180;6526;54.312;13.092;2022-08-21T06:41:41;101905.00;;;23.10
12918;BMP180;6526;54.312;13.092;2022-08-21T06:44:07;101896.00;;;23.30
12918;BMP180;6526;54.312;13.092;2022-08-21T06:46:33;101903.00;;;23.30
12918;BMP180;6526;54.312;13.092;2022-08-21T06:49:00;101897.00;;;23.40
12918;BMP180;6526;54.312;13.092;2022-08-21T06:51:26;101907.00;;;23.40
12918;BMP180;6526;54.312;13.092;2022-08-21T06:53:53;101905.00;;;23.50
12918;BMP180;6526;54.312;13.092;2022-08-21T06:56:19;101908.00;;;23.60
12918;BMP180;6526;54.312;13.092;2022-08-21T06:58:45;101917.00;;;23.60
12918;BMP180;6526;54.312;13.092;2022-08-21T07:01:11;101911.00;;;23.50
12918;BMP180;6526;54.312;13.092;2022-08-21T07:03:40;101910.00;;;23.50
12918;BMP180;6526;54.312;13.092;2022-08-21T07:06:07;101906.00;;;23.70
12918;BMP180;6526;54.312;13.092;2022-08-21T07:08:34;101906.00;;;23.70
12918;BMP180;6526;54.312;13.092;2022-08-21T07:11:03;101909.00;;;23.70
12918;BMP180;6526;54.312;13.092;2022-08-21T07:13:29;101896.00;;;24.00
12918;BMP180;6526;54.312;13.092;2022-08-21T07:15:55;101897.00;;;24.00
12918;BMP180;6526;54.312;13.092;2022-08-21T07:18:21;101897.00;;;24.20
12918;BMP180;6526;54.312;13.092;2022-08-21T07:20:48;101891.00;;;24.20
12918;BMP180;6526;54.312;13.092;2022-08-21T07:23:28;101894.00;;;24.30
12918;BMP180;6526;54.312;13.092;2022-08-21T07:25:54;101892.00;;;24.30
12918;BMP180;6526;54.312;13.092;2022-08-21T07:28:21;101899.00;;;24.50
12918;BMP180;6526;54.312;13.092;2022-08-21T07:30:52;101896.00;;;24.60
12918;BMP180;6526;54.312;13.092;2022-08-21T07:33:18;101901.00;;;24.60
12918;BMP180;6526;54.312;13.092;2022-08-21T07:35:44;101891.00;;;24.70
12918;BMP180;6526;54.312;13.092;2022-08-21T07:38:11;101890.00;;;25.00
12918;BMP180;6526;54.312;13.092;2022-08-21T07:40:37;101899.00;;;25.20
12918;BMP180;6526;54.312;13.092;2022-08-21T07:43:03;101891.00;;;25.00
12918;BMP180;6526;54.312;13.092;2022-08-21T07:45:29;101898.00;;;25.00
12918;BMP180;6526;54.312;13.092;2022-08-21T07:47:55;101898.00;;;25.10
12918;BMP180;6526;54.312;13.092;2022-08-21T07:50:21;101890.00;;;25.10
12918;BMP180;6526;54.312;13.092;2022-08-21T07:52:48;101892.00;;;25.10
12918;BMP180;6526;54.312;13.092;2022-08-21T07:55:18;101893.00;;;25.20
12918;BMP180;6526;54.312;13.092;2022-08-21T07:57:46;101885.00;;;25.30
12918;BMP180;6526;54.312;13.092;2022-08-21T08:00:16;101885.00;;;25.30
12918;BMP180;6526;54.312;13.092;2022-08-21T08:02:46;101887.00;;;25.30
12918;BMP180;6526;54.312;13.092;2022-08-21T08:05:16;101881.00;;;25.30
12918;BMP180;6526;54.312;13.092;2022-08-21T08:07:42;101888.00;;;25.40
12918;BMP180;6526;54.312;13.092;2022-08-21T08:10:09;101888.00;;;25.40
12918;BMP180;6526;54.312;13.092;2022-08-21T08:12:37;101894.00;;;25.60
12918;BMP180;6526;54.312;13.092;2022-08-21T08:15:07;101885.00;;;25.70
12918;BMP180;6526;54.312;13.092;2022-08-21T08:17:34;101888.00;;;25.70
12918;BMP180;6526;54.312;13.092;2022-08-21T08:20:00;101895.00;;;25.80
12918;BMP180;6526;54.312;13.092;2022-08-21T08:22:27;101896.00;;;25.70
12918;BMP180;6526;54.312;13.092;2022-08-21T08:24:53;101911.00;;;25.70
12918;BMP180;6526;54.312;13.092;2022-08-21T08:27:20;101907.00;;;25.70
12918;BMP180;6526;54.312;13.092;2022-08-21T08:29:47;101903.00;;;25.80
12918;BMP180;6526;54.312;13.092;2022-08-21T08:32:13;101909.00;;;25.80
12918;BMP180;6526;54.312;13.092;2022-08-21T08:34:40;101901.00;;;25.80
12918;BMP180;6526;54.312;13.092;2022-08-21T08:37:08;101898.00;;;25.90
12918;BMP180;6526;54.312;13.092;2022-08-21T08:39:35;101907.00;;;25.80
12918;BMP180;6526;54.312;13.092;2022-08-21T08:42:11;101905.00;;;25.90
12918;BMP180;6526;54.312;13.092;2022-08-21T08:44:43;101907.00;;;26.00
12918;BMP180;6526;54.312;13.092;2022-08-21T08:47:16;101907.00;;;26.20
12918;BMP180;6526;54.312;13.092;2022-08-21T08:50:05;101901.00;;;26.30
12918;BMP180;6526;54.312;13.092;2022-08-21T08:52:39;101912.00;;;26.60
12918;BMP180;6526;54.312;13.092;2022-08-21T08:55:16;101907.00;;;26.40
12918;BMP180;6526;54.312;13.092;2022-08-21T08:57:46;101907.00;;;26.40
12918;BMP180;6526;54.312;13.092;2022-08-21T09:00:14;101905.00;;;26.40
12918;BMP180;6526;54.312;13.092;2022-08-21T09:02:43;101908.00;;;26.60
12918;BMP180;6526;54.312;13.092;2022-08-21T09:05:45;101902.00;;;26.60
12918;BMP180;6526;54.312;13.092;2022-08-21T09:08:44;101906.00;;;26.70
12918;BMP180;6526;54.312;13.092;2022-08-21T09:16:56;101901.00;;;27.10
12918;BMP180;6526;54.312;13.092;2022-08-21T09:19:44;101899.00;;;27.30
12918;BMP180;6526;54.312;13.092;2022-08-21T09:25:08;101905.00;;;27.10
12918;BMP180;6526;54.312;13.092;2022-08-21T09:27:37;101900.00;;;27.20
12918;BMP180;6526;54.312;13.092;2022-08-21T09:30:04;101900.00;;;27.30
12918;BMP180;6526;54.312;13.092;2022-08-21T09:32:32;101901.00;;;27.40
12918;BMP180;6526;54.312;13.092;2022-08-21T09:35:11;101905.00;;;27.40
12918;BMP180;6526;54.312;13.092;2022-08-21T09:37:59;101899.00;;;27.60
12918;BMP180;6526;54.312;13.092;2022-08-21T09:40:39;101907.00;;;27.70
12918;BMP180;6526;54.312;13.092;2022-08-21T09:45:40;101908.00;;;28.20
12918;BMP180;6526;54.312;13.092;2022-08-21T09:48:17;101906.00;;;28.40
12918;BMP180;6526;54.312;13.092;2022-08-21T09:50:44;101905.00;;;28.10
12918;BMP180;6526;54.312;13.092;2022-08-21T09:53:23;101909.00;;;28.40
12918;BMP180;6526;54.312;13.092;2022-08-21T09:56:00;101911.00;;;28.30
12918;BMP180;6526;54.312;13.092;2022-08-21T09:58:47;101910.00;;;28.20
12918;BMP180;6526;54.312;13.092;2022-08-21T10:01:20;101912.00;;;28.20
12918;BMP180;6526;54.312;13.092;2022-08-21T10:03:47;101901.00;;;28.30
12918;BMP180;6526;54.312;13.092;2022-08-21T10:06:26;101909.00;;;28.40
12918;BMP180;6526;54.312;13.092;2022-08-21T10:09:11;101916.00;;;28.40
12918;BMP180;6526;54.312;13.092;2022-08-21T10:11:39;101907.00;;;28.50
12918;BMP180;6526;54.312;13.092;2022-08-21T10:19:56;101908.00;;;28.30
12918;BMP180;6526;54.312;13.092;2022-08-21T10:22:50;101904.00;;;28.40
12918;BMP180;6526;54.312;13.092;2022-08-21T10:25:24;101902.00;;;28.30
12918;BMP180;6526;54.312;13.092;2022-08-21T10:28:11;101917.00;;;28.40
12918;BMP180;6526;54.312;13.092;2022-08-21T10:30:48;101903.00;;;28.30
12918;BMP180;6526;54.312;13.092;2022-08-21T10:33:18;101906.00;;;28.30
12918;BMP180;6526;54.312;13.092;2022-08-21T10:44:33;101906.00;;;28.70
12918;BMP180;6526;54.312;13.092;2022-08-21T10:47:13;101907.00;;;28.70
12918;BMP180;6526;54.312;13.092;2022-08-21T10:49:52;101910.00;;;28.70
12918;BMP180;6526;54.312;13.092;2022-08-21T10:55:27;101903.00;;;28.90
12918;BMP180;6526;54.312;13.092;2022-08-21T10:58:19;101909.00;;;28.60
12918;BMP180;6526;54.312;13.092;2022-08-21T11:00:53;101912.00;;;28.20
12918;BMP180;6526;54.312;13.092;2022-08-21T11:03:27;101914.00;;;27.90
12918;BMP180;6526;54.312;13.092;2022-08-21T11:06:13;101912.00;;;27.90
12918;BMP180;6526;54.312;13.092;2022-08-21T11:08:43;101910.00;;;28.10
12918;BMP180;6526;54.312;13.092;2022-08-21T11:11:20;101913.00;;;28.30
12918;BMP180;6526;54.312;13.092;2022-08-21T11:17:07;101916.00;;;28.40
12918;BMP180;6526;54.312;13.092;2022-08-21T11:19:45;101910.00;;;28.50
12918;BMP180;6526;54.312;13.092;2022-08-21T11:25:00;101927.00;;;28.70
12918;BMP180;6526;54.312;13.092;2022-08-21T11:27:44;101921.00;;;28.90
12918;BMP180;6526;54.312;13.092;2022-08-21T11:30:12;101917.00;;;28.70
12918;BMP180;6526;54.312;13.092;2022-08-21T11:35:08;101913.00;;;28.40
12918;BMP180;6526;54.312;13.092;2022-08-21T11:40:44;101921.00;;;28.60
12918;BMP180;6526;54.312;13.092;2022-08-21T11:43:39;101923.00;;;28.60
12918;BMP180;6526;54.312;13.092;2022-08-21T11:49:15;101919.00;;;28.50
12918;BMP180;6526;54.312;13.092;2022-08-21T11:51:51;101934.00;;;28.60
12918;BMP180;6526;54.312;13.092;2022-08-21T11:56:59;101918.00;;;28.80
12918;BMP180;6526;54.312;13.092;2022-08-21T12:02:12;101919.00;;;29.00
12918;BMP180;6526;54.312;13.092;2022-08-21T12:04:49;101925.00;;;28.60
12918;BMP180;6526;54.312;13.092;2022-08-21T12:07:33;101923.00;;;28.90
12918;BMP180;6526;54.312;13.092;2022-08-21T12:10:01;101924.00;;;29.00
12918;BMP180;6526;54.312;13.092;2022-08-21T12:12:31;101935.00;;;28.60
12918;BMP180;6526;54.312;13.092;2022-08-21T12:15:14;101922.00;;;28.60
12918;BMP180;6526;54.312;13.092;2022-08-21T12:17:50;101919.00;;;28.60
12918;BMP180;6526;54.312;13.092;2022-08-21T12:28:25;101921.00;;;28.80
12918;BMP180;6526;54.312;13.092;2022-08-21T12:30:51;101919.00;;;28.70
12918;BMP180;6526;54.312;13.092;2022-08-21T12:35:51;101910.00;;;28.60
12918;BMP180;6526;54.312;13.092;2022-08-21T12:38:22;101907.00;;;28.50
12918;BMP180;6526;54.312;13.092;2022-08-21T12:40:56;101900.00;;;28.40
12918;BMP180;6526;54.312;13.092;2022-08-21T12:43:34;101904.00;;;28.50
12918;BMP180;6526;54.312;13.092;2022-08-21T12:46:01;101909.00;;;28.40
12918;BMP180;6526;54.312;13.092;2022-08-21T12:48:35;101917.00;;;28.40
12918;BMP180;6526;54.312;13.092;2022-08-21T12:51:14;101914.00;;;28.60
12918;BMP180;6526;54.312;13.092;2022-08-21T12:53:52;101914.00;;;28.60
12918;BMP180;6526;54.312;13.092;2022-08-21T12:56:20;101902.00;;;28.90
12918;BMP180;6526;54.312;13.092;2022-08-21T12:58:50;101912.00;;;28.80
12918;BMP180;6526;54.312;13.092;2022-08-21T13:01:22;101911.00;;;28.80
12918;BMP180;6526;54.312;13.092;2022-08-21T13:03:50;101911.00;;;28.70
12918;BMP180;6526;54.312;13.092;2022-08-21T13:06:20;101910.00;;;28.60
12918;BMP180;6526;54.312;13.092;2022-08-21T13:08:51;101908.00;;;28.40
12918;BMP180;6526;54.312;13.092;2022-08-21T13:11:22;101916.00;;;28.30
12918;BMP180;6526;54.312;13.092;2022-08-21T13:13:50;101903.00;;;28.50
12918;BMP180;6526;54.312;13.092;2022-08-21T13:16:26;101911.00;;;28.30
12918;BMP180;6526;54.312;13.092;2022-08-21T13:19:04;101892.00;;;28.20
12918;BMP180;6526;54.312;13.092;2022-08-21T13:21:50;101894.00;;;28.30
12918;BMP180;6526;54.312;13.092;2022-08-21T13:24:27;101899.00;;;28.40
12918;BMP180;6526;54.312;13.092;2022-08-21T13:26:55;101888.00;;;28.30
12918;BMP180;6526;54.312;13.092;2022-08-21T13:29:27;101896.00;;;28.20
12918;BMP180;6526;54.312;13.092;2022-08-21T13:31:59;101888.00;;;28.30
12918;BMP180;6526;54.312;13.092;2022-08-21T13:34:31;101892.00;;;28.20
12918;BMP180;6526;54.312;13.092;2022-08-21T13:37:00;101893.00;;;28.10
12918;BMP180;6526;54.312;13.092;2022-08-21T13:39:27;101883.00;;;28.30
12918;BMP180;6526;54.312;13.092;2022-08-21T13:41:56;101894.00;;;28.50
12918;BMP180;6526;54.312;13.092;2022-08-21T13:46:56;101888.00;;;28.50
12918;BMP180;6526;54.312;13.092;2022-08-21T13:49:35;101893.00;;;28.40
12918;BMP180;6526;54.312;13.092;2022-08-21T13:52:03;101885.00;;;28.40
12918;BMP180;6526;54.312;13.092;2022-08-21T13:54:40;101887.00;;;28.20
12918;BMP180;6526;54.312;13.092;2022-08-21T13:57:18;101891.00;;;28.10
12918;BMP180;6526;54.312;13.092;2022-08-21T13:59:44;101885.00;;;28.10
12918;BMP180;6526;54.312;13.092;2022-08-21T14:02:22;101880.00;;;28.00
12918;BMP180;6526;54.312;13.092;2022-08-21T14:04:58;101881.00;;;28.00
12918;BMP180;6526;54.312;13.092;2022-08-21T14:07:34;101890.00;;;27.70
12918;BMP180;6526;54.312;13.092;2022-08-21T14:10:04;101887.00;;;27.60
12918;BMP180;6526;54.312;13.092;2022-08-21T14:15:16;101898.00;;;27.60
12918;BMP180;6526;54.312;13.092;2022-08-21T14:17:43;101893.00;;;27.60
12918;BMP180;6526;54.312;13.092;2022-08-21T14:20:13;101882.00;;;27.60
12918;BMP180;6526;54.312;13.092;2022-08-21T14:22:51;101881.00;;;27.80
12918;BMP180;6526;54.312;13.092;2022-08-21T14:27:53;101885.00;;;27.80
12918;BMP180;6526;54.312;13.092;2022-08-21T14:30:29;101882.00;;;27.80
12918;BMP180;6526;54.312;13.092;2022-08-21T14:32:57;101884.00;;;27.70
12918;BMP180;6526;54.312;13.092;2022-08-21T14:35:23;101887.00;;;28.00
12918;BMP180;6526;54.312;13.092;2022-08-21T14:37:50;101889.00;;;28.10
12918;BMP180;6526;54.312;13.092;2022-08-21T14:40:18;101881.00;;;27.90
12918;BMP180;6526;54.312;13.092;2022-08-21T14:42:44;101877.00;;;27.80
12918;BMP180;6526;54.312;13.092;2022-08-21T14:47:47;101873.00;;;27.50
12918;BMP180;6526;54.312;13.092;2022-08-21T14:50:13;101869.00;;;27.40
12918;BMP180;6526;54.312;13.092;2022-08-21T14:52:40;101875.00;;;27.50
12918;BMP180;6526;54.312;13.092;2022-08-21T14:55:07;101857.00;;;27.60
12918;BMP180;6526;54.312;13.092;2022-08-21T14:57:36;101860.00;;;27.60
12918;BMP180;6526;54.312;13.092;2022-08-21T15:00:04;101857.00;;;27.50
12918;BMP180;6526;54.312;13.092;2022-08-21T15:02:30;101862.00;;;27.40
12918;BMP180;6526;54.312;13.092;2022-08-21T15:04:57;101861.00;;;27.30
12918;BMP180;6526;54.312;13.092;2022-08-21T15:07:23;101859.00;;;27.30
12918;BMP180;6526;54.312;13.092;2022-08-21T15:09:49;101858.00;;;27.30
12918;BMP180;6526;54.312;13.092;2022-08-21T15:12:15;101870.00;;;27.40
12918;BMP180;6526;54.312;13.092;2022-08-21T15:14:41;101862.00;;;27.30
12918;BMP180;6526;54.312;13.092;2022-08-21T15:17:09;101870.00;;;27.30
12918;BMP180;6526;54.312;13.092;2022-08-21T15:19:36;101869.00;;;27.40
12918;BMP180;6526;54.312;13.092;2022-08-21T15:22:03;101860.00;;;27.20
12918;BMP180;6526;54.312;13.092;2022-08-21T15:24:30;101869.00;;;27.20
12918;BMP180;6526;54.312;13.092;2022-08-21T15:26:56;101860.00;;;27.20